Ana Sayfa
METAR-TAF:

METAR-TAF

Havaalanları :

İncirlik Hava Üssü

İncirlik, Türkiye

Enlem: 37-00N, Boylam: 035-25E, yükseklik: 73 m

Güncel hava durumu gözlemi

Rapor saat 04:20 UTC de 36 dakika önce yapıldı.
Rüzgar kuzey/kuzeydoğudan 3 kt
Sıcaklık 25°C
Nem 83%
Basınç 1005 hPa
Görüş mesafesi 10 km veya daha fazla
1500 m altında bulut yok ve kümülonimbus yok

METAR: LTAG 150420Z 03003KT CAVOK 25/22 Q1005 NOSIG

Saat: 07:56 (04:56 UTC)

Tahmin

Rapor saat 22:40 UTC de 6 saat ve 16 dakika önce yapıldı.
Ayın 15'si saat 00 UTC'den ayın 15'si saat 24 UTC'ye kadar geçerli Tahmin
Rüzgar değişken yönden 2 kt
Görüş mesafesi 10 km veya daha fazla
1500 m altında bulut yok ve kümülonimbus yok
Dönüşüyor
ayın 15'si saat 10 UTC'den ayın 15'si saat 12 UTC'ye kadar
Rüzgar güneydan 12 kt
Dönüşüyor
ayın 15'si saat 16 UTC'den ayın 15'si saat 18 UTC'ye kadar
Rüzgar değişken yönden 2 kt

TAF: LTAG 142240Z 1500/1524 VRB02KT CAVOK BECMG 1510/1512 18012KT BECMG 1516/1518 VRB02KT

4.000'den fazla havaalanı için hava durumu gözlemleri ve tahminleri (METAR ve TAF raporları).

Kullanılabilir istasyonlar harita üzerinde sarı ve kırmızı noktalarla gösterilir.

İstasyonun adını görmek için fareyi noktanın üzerinde gezdirin.

Sonrasında hava gözlem ve tahminlerini görmek için tıklayın.

Haritayı değiştirmek için: yaklaştırmak için siyah artı işaretli yeşil düğmeye ve uzaklaştırmak için de eksi işaretli düğmeye hızla tıklayın; bitişik haritalar için yeşil okları kullanın.


METAR-TAF: